DW6801 Kvistgard DK current weather conditions

sailwx.info

Wind from 243 at 14 knots gusting 29

Air temperature 23.9° C
Dewpoint 15.6° C

Last reported at 2018-Jun-20 15:08 UTC.
Time now 2018-Jun-20 15:35 UTC

Location: N 55°60' E 012°29'.
View on Google Maps.

See reports from other nearby stations

  
Tides and Currents Weather Stations Pressure Air Temp Water Temp Dewpoint Dewpoint Depression Visibility Wind Speed Wind Dir Waves Ship Positions
date/time (UTC)wind fromknots sea level pressurealtimeterstation pressurevisibilityair tempwater tempwave heightnotes
2018-Jun-20 15:08 243 14 gusting 29 23.9
2018-Jun-20 14:59 242 17 gusting 28 23.3
2018-Jun-20 14:50 244 14 gusting 26 23.3
2018-Jun-20 14:41 239 13 gusting 22 22.8
2018-Jun-20 14:32 235 15 gusting 26 22.8
2018-Jun-20 14:23 243 15 gusting 25 22.8
2018-Jun-20 14:14 242 13 gusting 23 23.9
2018-Jun-20 14:05 244 13 gusting 22 22.8
2018-Jun-20 13:56 243 13 gusting 22 22.8
2018-Jun-20 13:47 240 13 gusting 26 23.3
2018-Jun-20 13:38 237 13 gusting 25 23.3
2018-Jun-20 13:29 234 11 gusting 23 23.9
2018-Jun-20 13:20 235 10 gusting 19 22.8
2018-Jun-20 13:11 235 12 gusting 24 22.8
2018-Jun-20 13:02 228 12 gusting 22 22.2
2018-Jun-20 12:53 230 13 gusting 28 22.2
2018-Jun-20 12:44 233 12 gusting 22 22.8
2018-Jun-20 12:35 220 11 gusting 22 22.2
2018-Jun-20 12:26 231 12 gusting 30 22.2
2018-Jun-20 12:17 214 8 gusting 19 22.2
2018-Jun-20 12:08 229 9 gusting 17 22.2
2018-Jun-20 11:59 233 10 gusting 20 22.2
2018-Jun-20 11:50 237 10 gusting 20 21.7
2018-Jun-20 11:41 234 12 gusting 24 21.7
2018-Jun-20 11:32 241 11 gusting 21 22.2
2018-Jun-20 11:23 226 10 gusting 18 21.7
2018-Jun-20 11:14 235 8 gusting 17 21.7
2018-Jun-20 11:05 205 7 gusting 18 21.1
2018-Jun-20 10:56 195 6 gusting 16 20.6
2018-Jun-20 10:47 208 6 gusting 11 20.0
2018-Jun-20 10:38 183 6 gusting 13 19.4
2018-Jun-20 10:29 176 5 gusting 13 19.4
2018-Jun-20 10:20 181 6 gusting 15 18.9
2018-Jun-20 10:11 183 6 gusting 13 18.3
2018-Jun-20 10:02 176 6 gusting 18 17.8
2018-Jun-20 09:53 177 5 gusting 12 17.2
2018-Jun-20 09:44 173 6 gusting 13 16.7
2018-Jun-20 09:35 183 6 gusting 20 16.1
2018-Jun-20 09:26 169 6 gusting 13 16.1
2018-Jun-20 09:17 171 6 gusting 12 15.6
2018-Jun-20 09:08 172 6 gusting 10 15.6
2018-Jun-20 08:59 165 7 gusting 18 15.6
2018-Jun-20 08:50 171 5 gusting 12 15.0
2018-Jun-20 08:41 172 6 gusting 13 15.0
2018-Jun-20 08:32 165 6 gusting 12 15.0
2018-Jun-20 08:23 168 4 gusting 10 14.4
2018-Jun-20 08:14 175 4 gusting 10 13.9
2018-Jun-20 08:05 173 4 gusting 10 13.9
2018-Jun-20 07:56 172 3 gusting 7 13.3
2018-Jun-20 07:47 177 2 gusting 6 13.3
2018-Jun-20 07:38 183 2 gusting 7 12.8
2018-Jun-20 07:29 194 5 gusting 12 12.2
2018-Jun-20 07:20 186 4 gusting 9 12.8
2018-Jun-20 07:11 200 4 gusting 7 12.8
2018-Jun-20 07:02 202 4 gusting 10 12.8
2018-Jun-20 06:53 193 4 gusting 10 13.9
2018-Jun-20 06:44 181 5 gusting 11 13.9
2018-Jun-20 06:35 190 4 gusting 8 13.9
2018-Jun-20 06:26 184 3 gusting 9 13.9
2018-Jun-20 06:17 189 3 gusting 8 13.9
2018-Jun-20 06:08 188 3 gusting 6 13.9
2018-Jun-20 05:59 190 3 gusting 6 13.3
2018-Jun-20 05:50 197 2 gusting 6 13.9
2018-Jun-20 05:41 219 2 gusting 5 13.9
2018-Jun-20 05:32 243 3 gusting 8 13.9
2018-Jun-20 05:23 245 6 gusting 11 13.9
2018-Jun-20 05:14 252 5 gusting 11 13.9
2018-Jun-20 05:05 246 6 gusting 11 13.9
2018-Jun-20 04:56 239 5 gusting 8 13.9
2018-Jun-20 04:47 242 4 gusting 9 13.9
2018-Jun-20 04:38 242 5 gusting 10 13.3
2018-Jun-20 04:29 246 4 gusting 10 13.3
2018-Jun-20 04:20 244 4 gusting 8 13.3
2018-Jun-20 04:11 242 4 gusting 7 12.8
2018-Jun-20 04:02 245 4 gusting 6 12.8
2018-Jun-20 03:53 252 5 gusting 7 12.8
2018-Jun-20 03:44 257 3 gusting 6 12.8
2018-Jun-20 03:35 258 2 gusting 4 12.2
2018-Jun-20 03:26 257 1 gusting 3 11.7
2018-Jun-20 03:17 258 2 gusting 5 11.7
2018-Jun-20 03:08 259 2 gusting 5 11.7
2018-Jun-20 02:59 260 3 gusting 7 11.7
2018-Jun-20 02:50 257 4 gusting 7 12.2
2018-Jun-20 02:41 266 3 gusting 7 12.2
2018-Jun-20 02:32 260 4 gusting 9 12.2
2018-Jun-20 02:23 263 5 gusting 10 12.2
2018-Jun-20 02:14 262 5 gusting 11 12.2
2018-Jun-20 02:05 260 6 gusting 9 12.8
2018-Jun-20 01:56 258 6 gusting 13 13.3
2018-Jun-20 01:47 258 6 gusting 13 13.3
2018-Jun-20 01:38 259 6 gusting 12 13.3
2018-Jun-20 01:29 259 6 gusting 12 13.3
2018-Jun-20 01:20 252 6 gusting 9 13.3
2018-Jun-20 01:11 254 6 gusting 11 13.3
2018-Jun-20 01:02 255 6 gusting 11 12.8
2018-Jun-20 00:53 254 6 gusting 10 12.8
2018-Jun-20 00:44 259 6 gusting 11 12.8
2018-Jun-20 00:35 259 5 gusting 9 12.8
2018-Jun-20 00:26 259 6 gusting 12 12.8
2018-Jun-20 00:17 258 5 gusting 12 12.8
2018-Jun-20 00:08 256 6 gusting 10 12.8
2018-Jun-19 23:59 258 6 gusting 10 12.8
2018-Jun-19 23:50 256 6 gusting 10 12.8
2018-Jun-19 23:41 257 6 gusting 11 13.3
2018-Jun-19 23:32 252 7 gusting 11 13.3
2018-Jun-19 23:23 252 8 gusting 13 13.3
2018-Jun-19 23:14 254 6 gusting 12 13.3
2018-Jun-19 23:05 253 7 gusting 13 13.3
2018-Jun-19 22:56 256 6 gusting 12 13.3
2018-Jun-19 22:47 255 7 gusting 13 13.9
2018-Jun-19 22:38 255 7 gusting 12 13.9
2018-Jun-19 22:29 263 6 gusting 12 13.3
2018-Jun-19 22:20 260 6 gusting 12 13.9
2018-Jun-19 22:11 260 6 gusting 11 13.9
2018-Jun-19 22:02 258 6 gusting 10 13.9
2018-Jun-19 21:53 259 5 gusting 7 13.3
2018-Jun-19 21:44 260 5 gusting 8 13.9
2018-Jun-19 21:35 260 5 gusting 8 13.9
2018-Jun-19 21:26 258 5 gusting 9 13.9
2018-Jun-19 21:17 257 6 gusting 9 13.9
2018-Jun-19 21:08 257 5 gusting 9 13.9
2018-Jun-19 20:59 263 4 gusting 9 13.9
2018-Jun-19 20:50 261 5 gusting 9 13.9
2018-Jun-19 20:41 259 5 gusting 9 13.9
2018-Jun-19 20:32 260 4 gusting 7 13.9
2018-Jun-19 20:23 263 5 gusting 9 14.4
2018-Jun-19 20:14 264 5 gusting 9 14.4
2018-Jun-19 20:05 264 4 gusting 8 14.4
2018-Jun-19 19:56 265 5 gusting 10 14.4
2018-Jun-19 19:47 260 4 gusting 9 14.4
2018-Jun-19 19:38 259 6 gusting 11 15.0
2018-Jun-19 19:29 264 6 gusting 14 15.0
2018-Jun-19 19:20 262 6 gusting 14 15.6
2018-Jun-19 19:11 266 6 gusting 13 15.6
2018-Jun-19 19:02 262 8 gusting 16 16.1
2018-Jun-19 18:53 259 8 gusting 14 16.1
2018-Jun-19 18:44 260 8 gusting 13 16.1
2018-Jun-19 18:35 270 6 gusting 13 16.7
2018-Jun-19 18:26 267 6 gusting 13 16.7
2018-Jun-19 18:17 261 6 gusting 13 16.7
2018-Jun-19 18:08 259 8 gusting 14 17.2
2018-Jun-19 17:59 262 7 gusting 14 17.8
2018-Jun-19 17:50 268 7 gusting 15 17.8
2018-Jun-19 17:41 258 10 gusting 17 17.8
2018-Jun-19 17:32 260 11 gusting 24 18.3
2018-Jun-19 17:23 257 8 gusting 16 18.3
2018-Jun-19 17:14 259 7 gusting 17 18.3
2018-Jun-19 17:05 267 7 gusting 20 18.3
2018-Jun-19 16:56 256 9 gusting 19 18.9
2018-Jun-19 16:47 257 11 gusting 19 18.9
2018-Jun-19 16:38 254 10 gusting 19 18.9
2018-Jun-19 16:29 263 10 gusting 19 18.9
2018-Jun-19 16:20 265 8 gusting 19 19.4
2018-Jun-19 16:11 259 8 gusting 17 19.4
2018-Jun-19 16:02 266 9 gusting 17 19.4
2018-Jun-19 15:53 258 10 gusting 20 19.4
2018-Jun-19 15:44 259 10 gusting 19 20.0
2018-Jun-19 15:35 255 12 gusting 21 20.0
2018-Jun-19 15:26 259 10 gusting 19 20.0
2018-Jun-19 15:17 257 12 gusting 19 20.0
2018-Jun-19 15:08 270 8 gusting 19 20.6
2018-Jun-19 14:59 270 9 gusting 17 19.4
2018-Jun-19 14:50 262 9 gusting 19 20.6
2018-Jun-19 14:41 269 10 gusting 19 20.0
2018-Jun-19 14:32 254 11 gusting 24 20.0
2018-Jun-19 14:23 260 11 gusting 20 20.0
2018-Jun-19 14:14 259 11 gusting 19 20.0
2018-Jun-19 14:05 263 10 gusting 19 19.4
2018-Jun-19 13:56 260 12 gusting 23 20.0
2018-Jun-19 13:47 259 10 gusting 19 20.0
2018-Jun-19 13:38 259 9 gusting 19 20.6
2018-Jun-19 13:29 255 12 gusting 20 20.0
2018-Jun-19 13:20 264 9 gusting 20 20.6
2018-Jun-19 13:11 269 9 gusting 19 21.1
2018-Jun-19 13:02 265 8 gusting 19 20.6
2018-Jun-19 12:53 269 9 gusting 20 20.0
2018-Jun-19 12:44 272 9 gusting 19 21.1
2018-Jun-19 12:35 258 10 gusting 20 21.1
2018-Jun-19 12:26 266 10 gusting 19 21.1
2018-Jun-19 12:17 254 9 gusting 19 21.7
2018-Jun-19 12:08 250 10 gusting 19 20.6
2018-Jun-19 11:59 271 9 gusting 22 20.0
2018-Jun-19 11:50 265 8 gusting 18 20.0
2018-Jun-19 11:41 255 11 gusting 23 20.6
2018-Jun-19 11:32 258 9 gusting 19 20.0
2018-Jun-19 11:23 253 12 gusting 19 18.9
2018-Jun-19 11:14 258 12 gusting 22 18.9
2018-Jun-19 11:05 258 12 gusting 22 20.0
2018-Jun-19 10:56 252 11 gusting 19 20.6
2018-Jun-19 10:47 251 15 gusting 26 21.1
2018-Jun-19 10:38 247 13 gusting 25 21.1
2018-Jun-19 10:29 242 13 gusting 22 20.6
2018-Jun-19 10:20 253 11 gusting 20 20.6
2018-Jun-19 10:11 245 12 gusting 20 19.4
2018-Jun-19 10:02 247 12 gusting 21 20.0
2018-Jun-19 09:53 252 11 gusting 19 18.9
2018-Jun-19 09:44 253 11 gusting 17 18.9
2018-Jun-19 09:35 253 11 gusting 19 18.3
2018-Jun-19 09:26 249 9 gusting 15 17.8
2018-Jun-19 09:17 253 8 gusting 16 17.8
2018-Jun-19 09:08 261 7 gusting 15 17.8
2018-Jun-19 08:59 247 8 gusting 15 17.8
2018-Jun-19 08:50 248 11 gusting 18 17.8
2018-Jun-19 08:41 249 11 gusting 20 17.8
2018-Jun-19 08:32 247 11 gusting 19 17.8
2018-Jun-19 08:23 251 10 gusting 18 17.8
2018-Jun-19 08:14 254 9 gusting 17 17.8
2018-Jun-19 08:05 254 11 gusting 21 17.2
2018-Jun-19 07:56 246 9 gusting 18 17.2
2018-Jun-19 07:47 257 7 gusting 16 16.7
2018-Jun-19 07:38 258 9 gusting 19 16.7
2018-Jun-19 07:29 255 9 gusting 15 16.7
2018-Jun-19 07:20 256 7 gusting 15 16.7
2018-Jun-19 07:11 252 8 gusting 14 16.1
2018-Jun-19 06:53 246 7 gusting 13 15.6
2018-Jun-19 06:44 247 9 gusting 17 15.6
2018-Jun-19 06:35 247 7 gusting 13 15.6
2018-Jun-19 06:26 247 9 gusting 18 15.6
2018-Jun-19 06:17 247 8 gusting 14 15.6
2018-Jun-19 06:08 245 8 gusting 14 16.1
2018-Jun-19 05:59 245 6 gusting 12 16.1
2018-Jun-19 05:50 240 7 gusting 13 15.6
2018-Jun-19 05:41 242 7 gusting 13 15.6
2018-Jun-19 05:32 247 8 gusting 13 15.0
2018-Jun-19 05:23 241 7 gusting 13 15.0
2018-Jun-19 05:14 240 6 gusting 12 15.0
2018-Jun-19 05:05 242 7 gusting 12 15.0
2018-Jun-19 04:56 245 8 gusting 13 15.0
2018-Jun-19 04:47 243 8 gusting 14 15.0
2018-Jun-19 04:38 243 8 gusting 13 14.4
2018-Jun-19 04:29 247 7 gusting 12 14.4
2018-Jun-19 04:20 241 8 gusting 13 15.0
2018-Jun-19 04:11 244 10 gusting 15 15.0
2018-Jun-19 04:02 243 7 gusting 14 15.0
2018-Jun-19 03:53 244 9 gusting 14 14.4
2018-Jun-19 03:44 245 8 gusting 13 14.4
2018-Jun-19 03:35 245 9 gusting 15 14.4
2018-Jun-19 03:26 247 8 gusting 15 14.4
2018-Jun-19 03:17 245 7 gusting 12 14.4
2018-Jun-19 03:08 245 7 gusting 13 14.4
2018-Jun-19 02:59 245 9 gusting 16 14.4
2018-Jun-19 02:50 245 9 gusting 14 14.4
2018-Jun-19 02:41 248 9 gusting 19 14.4
2018-Jun-19 02:32 243 7 gusting 13 14.4
2018-Jun-19 02:23 240 7 gusting 14 14.4
2018-Jun-19 02:14 238 5 gusting 10 14.4
2018-Jun-19 02:05 232 5 gusting 10 14.4
2018-Jun-19 01:56 228 5 gusting 11 14.4
2018-Jun-19 01:47 228 5 gusting 9 14.4
2018-Jun-19 01:38 238 6 gusting 11 14.4
2018-Jun-19 01:29 230 6 gusting 14 14.4
2018-Jun-19 01:20 216 4 gusting 14 14.4
2018-Jun-19 01:11 231 4 gusting 8 14.4
2018-Jun-19 01:02 229 5 gusting 10 15.0
2018-Jun-19 00:53 233 6 gusting 13 15.0
2018-Jun-19 00:44 235 5 gusting 11 15.6
2018-Jun-19 00:35 236 6 gusting 11 15.6
2018-Jun-19 00:26 237 6 gusting 12 15.6
2018-Jun-19 00:17 236 6 gusting 11 15.6
2018-Jun-19 00:08 236 6 gusting 11 15.6
2018-Jun-18 23:59 238 6 gusting 12 15.6
2018-Jun-18 23:50 234 6 gusting 12 15.6
2018-Jun-18 23:41 232 6 gusting 12 15.6
2018-Jun-18 23:32 235 6 gusting 10 15.6
2018-Jun-18 23:23 228 6 gusting 10 15.6
2018-Jun-18 23:14 231 5 gusting 10 15.6
2018-Jun-18 23:05 226 4 gusting 10 15.6
2018-Jun-18 22:56 221 4 gusting 9 15.6
2018-Jun-18 22:47 227 4 gusting 10 15.6
2018-Jun-18 22:38 238 4 gusting 9 15.6
2018-Jun-18 22:29 232 5 gusting 12 16.1
2018-Jun-18 22:20 228 4 gusting 8 16.1
2018-Jun-18 22:11 223 3 gusting 8 15.6
2018-Jun-18 22:02 220 3 gusting 8 16.1
2018-Jun-18 21:53 227 3 gusting 7 16.1
2018-Jun-18 21:44 224 3 gusting 7 16.1
2018-Jun-18 21:35 214 3 gusting 6 16.1
2018-Jun-18 21:26 214 3 gusting 8 16.1
2018-Jun-18 21:17 233 4 gusting 7 15.6
2018-Jun-18 21:08 216 3 gusting 7 15.6
2018-Jun-18 20:59 207 2 gusting 6 16.1
2018-Jun-18 20:50 215 2 gusting 6 16.1
2018-Jun-18 20:41 227 4 gusting 8 16.1
2018-Jun-18 20:32 222 5 gusting 13 16.7
2018-Jun-18 20:23 232 6 gusting 12 16.7
2018-Jun-18 20:14 219 5 gusting 10 16.7
2018-Jun-18 20:05 203 4 gusting 9 16.7
2018-Jun-18 19:56 190 4 gusting 10 16.7
2018-Jun-18 19:47 205 4 gusting 10 17.2
2018-Jun-18 19:38 210 4 gusting 10 17.2
2018-Jun-18 19:29 196 4 gusting 10 17.2
2018-Jun-18 19:20 191 5 gusting 10 17.2
2018-Jun-18 19:13 197 4 gusting 10 17.2
2018-Jun-18 19:02 193 4 gusting 8 17.2
2018-Jun-18 18:53 218 5 gusting 11 17.2
2018-Jun-18 18:44 228 6 gusting 13 17.2
2018-Jun-18 18:35 213 5 gusting 11 17.2
2018-Jun-18 18:26 216 5 gusting 14 17.8
2018-Jun-18 18:17 223 6 gusting 14 17.8
2018-Jun-18 18:08 221 5 gusting 12 17.8
2018-Jun-18 17:59 217 6 gusting 13 17.8
2018-Jun-18 17:50 213 4 gusting 13 17.8
2018-Jun-18 17:41 227 6 gusting 13 17.8
2018-Jun-18 17:32 211 3 gusting 9 17.8
2018-Jun-18 17:23 208 5 gusting 9 17.8
2018-Jun-18 17:14 214 5 gusting 11 17.8
2018-Jun-18 17:05 220 5 gusting 13 17.8
2018-Jun-18 16:56 226 6 gusting 11 17.8
2018-Jun-18 16:47 225 6 gusting 14 17.8
2018-Jun-18 16:38 233 7 gusting 14 18.3
2018-Jun-18 16:29 230 6 gusting 11 18.3
2018-Jun-18 16:20 230 6 gusting 12 18.3
2018-Jun-18 16:11 216 5 gusting 9 18.3
2018-Jun-18 16:02 215 5 gusting 9 18.3
2018-Jun-18 15:53 220 6 gusting 14 18.3
2018-Jun-18 15:44 210 6 gusting 10 18.3
2018-Jun-18 15:35 216 6 gusting 11 18.3
2018-Jun-18 15:26 205 4 gusting 10 18.3
2018-Jun-18 15:17 220 4 gusting 9 18.3
2018-Jun-18 15:08 212 6 gusting 12 18.3